sensor_id;sensor_type;location;lat;lon;timestamp;P1;durP1;ratioP1;P2;durP2;ratioP2
23384;SDS011;11865;45.394;10.978;2024-01-30T00:00:39;97.90;;;39.05;;
23384;SDS011;11865;45.394;10.978;2024-01-30T00:03:07;95.97;;;37.70;;
23384;SDS011;11865;45.394;10.978;2024-01-30T00:05:34;114.05;;;38.03;;
23384;SDS011;11865;45.394;10.978;2024-01-30T00:08:02;103.28;;;37.60;;
23384;SDS011;11865;45.394;10.978;2024-01-30T00:10:30;104.90;;;35.90;;
23384;SDS011;11865;45.394;10.978;2024-01-30T00:12:57;108.35;;;38.33;;
23384;SDS011;11865;45.394;10.978;2024-01-30T00:15:25;111.45;;;39.40;;
23384;SDS011;11865;45.394;10.978;2024-01-30T00:17:52;108.15;;;37.17;;
23384;SDS011;11865;45.394;10.978;2024-01-30T00:20:20;95.95;;;37.95;;
23384;SDS011;11865;45.394;10.978;2024-01-30T00:22:48;102.70;;;38.15;;
23384;SDS011;11865;45.394;10.978;2024-01-30T00:25:15;118.22;;;38.58;;
23384;SDS011;11865;45.394;10.978;2024-01-30T00:27:43;83.07;;;36.03;;
23384;SDS011;11865;45.394;10.978;2024-01-30T00:30:11;90.38;;;37.72;;
23384;SDS011;11865;45.394;10.978;2024-01-30T00:32:39;104.45;;;38.13;;
23384;SDS011;11865;45.394;10.978;2024-01-30T00:35:07;83.93;;;35.95;;
23384;SDS011;11865;45.394;10.978;2024-01-30T00:37:37;72.22;;;35.20;;
23384;SDS011;11865;45.394;10.978;2024-01-30T00:40:04;79.53;;;33.75;;
23384;SDS011;11865;45.394;10.978;2024-01-30T00:42:33;95.47;;;33.88;;
23384;SDS011;11865;45.394;10.978;2024-01-30T00:45:00;83.75;;;33.63;;
23384;SDS011;11865;45.394;10.978;2024-01-30T00:47:28;89.05;;;35.17;;
23384;SDS011;11865;45.394;10.978;2024-01-30T00:49:56;85.50;;;34.88;;
23384;SDS011;11865;45.394;10.978;2024-01-30T00:52:24;73.55;;;34.92;;
23384;SDS011;11865;45.394;10.978;2024-01-30T00:54:51;84.95;;;37.83;;
23384;SDS011;11865;45.394;10.978;2024-01-30T00:57:19;94.07;;;36.40;;
23384;SDS011;11865;45.394;10.978;2024-01-30T00:59:46;93.97;;;41.63;;
23384;SDS011;11865;45.394;10.978;2024-01-30T01:02:14;93.18;;;41.80;;
23384;SDS011;11865;45.394;10.978;2024-01-30T01:04:44;82.10;;;39.67;;
23384;SDS011;11865;45.394;10.978;2024-01-30T01:07:12;94.65;;;39.85;;
23384;SDS011;11865;45.394;10.978;2024-01-30T01:09:39;88.30;;;39.05;;
23384;SDS011;11865;45.394;10.978;2024-01-30T01:12:07;104.25;;;37.70;;
23384;SDS011;11865;45.394;10.978;2024-01-30T01:14:34;99.43;;;35.00;;
23384;SDS011;11865;45.394;10.978;2024-01-30T01:17:03;77.47;;;34.00;;
23384;SDS011;11865;45.394;10.978;2024-01-30T01:19:30;85.78;;;35.67;;
23384;SDS011;11865;45.394;10.978;2024-01-30T01:21:58;100.25;;;34.88;;
23384;SDS011;11865;45.394;10.978;2024-01-30T01:24:26;73.72;;;35.25;;
23384;SDS011;11865;45.394;10.978;2024-01-30T01:26:53;98.38;;;36.10;;
23384;SDS011;11865;45.394;10.978;2024-01-30T01:29:21;91.53;;;34.85;;
23384;SDS011;11865;45.394;10.978;2024-01-30T01:31:55;96.82;;;35.00;;
23384;SDS011;11865;45.394;10.978;2024-01-30T01:34:23;91.53;;;35.42;;
23384;SDS011;11865;45.394;10.978;2024-01-30T01:36:56;91.10;;;35.72;;
23384;SDS011;11865;45.394;10.978;2024-01-30T01:39:24;98.60;;;36.45;;
23384;SDS011;11865;45.394;10.978;2024-01-30T01:41:51;104.22;;;35.92;;
23384;SDS011;11865;45.394;10.978;2024-01-30T01:44:19;134.02;;;34.78;;
23384;SDS011;11865;45.394;10.978;2024-01-30T01:46:47;87.35;;;33.65;;
23384;SDS011;11865;45.394;10.978;2024-01-30T01:49:15;110.07;;;35.95;;
23384;SDS011;11865;45.394;10.978;2024-01-30T01:51:43;117.20;;;35.30;;
23384;SDS011;11865;45.394;10.978;2024-01-30T01:54:12;85.07;;;33.85;;
23384;SDS011;11865;45.394;10.978;2024-01-30T01:56:42;135.35;;;33.88;;
23384;SDS011;11865;45.394;10.978;2024-01-30T01:59:11;109.53;;;33.58;;
23384;SDS011;11865;45.394;10.978;2024-01-30T02:01:39;98.18;;;32.65;;
23384;SDS011;11865;45.394;10.978;2024-01-30T02:04:08;97.68;;;34.85;;
23384;SDS011;11865;45.394;10.978;2024-01-30T02:06:36;98.00;;;35.17;;
23384;SDS011;11865;45.394;10.978;2024-01-30T02:09:05;122.60;;;35.60;;
23384;SDS011;11865;45.394;10.978;2024-01-30T02:11:33;98.07;;;33.97;;
23384;SDS011;11865;45.394;10.978;2024-01-30T02:14:04;104.63;;;33.97;;
23384;SDS011;11865;45.394;10.978;2024-01-30T02:16:32;140.77;;;32.50;;
23384;SDS011;11865;45.394;10.978;2024-01-30T02:18:59;93.75;;;32.50;;
23384;SDS011;11865;45.394;10.978;2024-01-30T02:21:27;138.45;;;33.60;;
23384;SDS011;11865;45.394;10.978;2024-01-30T02:23:55;93.30;;;34.55;;
23384;SDS011;11865;45.394;10.978;2024-01-30T02:26:23;117.95;;;35.03;;
23384;SDS011;11865;45.394;10.978;2024-01-30T02:28:51;104.03;;;34.40;;
23384;SDS011;11865;45.394;10.978;2024-01-30T02:31:19;84.72;;;33.28;;
23384;SDS011;11865;45.394;10.978;2024-01-30T02:33:46;83.18;;;32.75;;
23384;SDS011;11865;45.394;10.978;2024-01-30T02:36:14;89.90;;;33.65;;
23384;SDS011;11865;45.394;10.978;2024-01-30T02:38:42;88.78;;;34.03;;
23384;SDS011;11865;45.394;10.978;2024-01-30T02:41:10;92.18;;;33.38;;
23384;SDS011;11865;45.394;10.978;2024-01-30T02:43:37;90.43;;;34.63;;
23384;SDS011;11865;45.394;10.978;2024-01-30T02:46:05;95.25;;;35.33;;
23384;SDS011;11865;45.394;10.978;2024-01-30T02:48:33;100.65;;;33.25;;
23384;SDS011;11865;45.394;10.978;2024-01-30T02:51:00;93.50;;;34.40;;
23384;SDS011;11865;45.394;10.978;2024-01-30T02:53:28;123.28;;;35.90;;
23384;SDS011;11865;45.394;10.978;2024-01-30T02:55:55;89.65;;;32.53;;
23384;SDS011;11865;45.394;10.978;2024-01-30T02:58:23;100.60;;;32.80;;
23384;SDS011;11865;45.394;10.978;2024-01-30T03:00:50;123.45;;;34.53;;
23384;SDS011;11865;45.394;10.978;2024-01-30T03:03:18;151.68;;;33.78;;
23384;SDS011;11865;45.394;10.978;2024-01-30T03:05:46;105.50;;;33.63;;
23384;SDS011;11865;45.394;10.978;2024-01-30T03:08:14;118.50;;;33.88;;
23384;SDS011;11865;45.394;10.978;2024-01-30T03:10:41;115.07;;;31.90;;
23384;SDS011;11865;45.394;10.978;2024-01-30T03:13:09;121.18;;;33.70;;
23384;SDS011;11865;45.394;10.978;2024-01-30T03:15:37;101.43;;;31.70;;
23384;SDS011;11865;45.394;10.978;2024-01-30T03:18:04;106.25;;;33.67;;
23384;SDS011;11865;45.394;10.978;2024-01-30T03:20:32;90.47;;;31.80;;
23384;SDS011;11865;45.394;10.978;2024-01-30T03:23:00;97.38;;;31.48;;
23384;SDS011;11865;45.394;10.978;2024-01-30T03:25:28;127.40;;;33.00;;
23384;SDS011;11865;45.394;10.978;2024-01-30T03:27:55;95.35;;;32.78;;
23384;SDS011;11865;45.394;10.978;2024-01-30T03:30:23;111.05;;;32.55;;
23384;SDS011;11865;45.394;10.978;2024-01-30T03:32:50;83.15;;;33.42;;
23384;SDS011;11865;45.394;10.978;2024-01-30T03:35:18;76.47;;;32.65;;
23384;SDS011;11865;45.394;10.978;2024-01-30T03:37:46;97.57;;;33.97;;
23384;SDS011;11865;45.394;10.978;2024-01-30T03:40:13;84.57;;;33.88;;
23384;SDS011;11865;45.394;10.978;2024-01-30T03:42:42;80.40;;;33.65;;
23384;SDS011;11865;45.394;10.978;2024-01-30T03:45:09;78.70;;;33.30;;
23384;SDS011;11865;45.394;10.978;2024-01-30T03:47:37;97.75;;;33.33;;
23384;SDS011;11865;45.394;10.978;2024-01-30T03:50:05;92.15;;;32.85;;
23384;SDS011;11865;45.394;10.978;2024-01-30T03:52:33;76.25;;;33.00;;
23384;SDS011;11865;45.394;10.978;2024-01-30T03:55:00;61.22;;;32.10;;
23384;SDS011;11865;45.394;10.978;2024-01-30T03:57:28;94.20;;;34.30;;
23384;SDS011;11865;45.394;10.978;2024-01-30T03:59:56;74.22;;;34.22;;
23384;SDS011;11865;45.394;10.978;2024-01-30T04:02:26;80.60;;;31.90;;
23384;SDS011;11865;45.394;10.978;2024-01-30T04:04:54;77.57;;;31.13;;
23384;SDS011;11865;45.394;10.978;2024-01-30T04:07:22;68.40;;;33.08;;
23384;SDS011;11865;45.394;10.978;2024-01-30T04:09:50;65.00;;;30.48;;
23384;SDS011;11865;45.394;10.978;2024-01-30T04:12:18;73.15;;;31.02;;
23384;SDS011;11865;45.394;10.978;2024-01-30T04:14:45;65.13;;;28.50;;
23384;SDS011;11865;45.394;10.978;2024-01-30T04:17:13;64.80;;;29.35;;
23384;SDS011;11865;45.394;10.978;2024-01-30T04:19:40;61.83;;;29.13;;
23384;SDS011;11865;45.394;10.978;2024-01-30T04:22:08;54.80;;;29.23;;
23384;SDS011;11865;45.394;10.978;2024-01-30T04:24:36;55.10;;;27.63;;
23384;SDS011;11865;45.394;10.978;2024-01-30T04:27:03;77.82;;;29.70;;
23384;SDS011;11865;45.394;10.978;2024-01-30T04:29:31;65.82;;;27.48;;
23384;SDS011;11865;45.394;10.978;2024-01-30T04:31:59;66.72;;;29.02;;
23384;SDS011;11865;45.394;10.978;2024-01-30T04:34:27;94.85;;;30.83;;
23384;SDS011;11865;45.394;10.978;2024-01-30T04:36:55;75.35;;;27.17;;
23384;SDS011;11865;45.394;10.978;2024-01-30T04:39:22;70.60;;;29.70;;
23384;SDS011;11865;45.394;10.978;2024-01-30T04:41:50;62.70;;;29.33;;
23384;SDS011;11865;45.394;10.978;2024-01-30T04:44:17;57.05;;;28.55;;
23384;SDS011;11865;45.394;10.978;2024-01-30T04:46:45;51.53;;;27.27;;
23384;SDS011;11865;45.394;10.978;2024-01-30T04:49:13;56.70;;;27.58;;
23384;SDS011;11865;45.394;10.978;2024-01-30T04:51:41;88.90;;;28.88;;
23384;SDS011;11865;45.394;10.978;2024-01-30T04:54:08;65.68;;;27.05;;
23384;SDS011;11865;45.394;10.978;2024-01-30T04:56:36;63.67;;;27.15;;
23384;SDS011;11865;45.394;10.978;2024-01-30T04:59:04;63.13;;;26.90;;
23384;SDS011;11865;45.394;10.978;2024-01-30T05:01:31;64.60;;;27.45;;
23384;SDS011;11865;45.394;10.978;2024-01-30T05:04:00;62.25;;;26.65;;
23384;SDS011;11865;45.394;10.978;2024-01-30T05:06:28;76.22;;;26.08;;
23384;SDS011;11865;45.394;10.978;2024-01-30T05:08:55;59.80;;;26.35;;
23384;SDS011;11865;45.394;10.978;2024-01-30T05:11:23;52.42;;;26.20;;
23384;SDS011;11865;45.394;10.978;2024-01-30T05:13:50;61.20;;;25.70;;
23384;SDS011;11865;45.394;10.978;2024-01-30T05:16:18;52.92;;;25.50;;
23384;SDS011;11865;45.394;10.978;2024-01-30T05:18:46;56.00;;;25.17;;
23384;SDS011;11865;45.394;10.978;2024-01-30T05:21:13;50.70;;;26.65;;
23384;SDS011;11865;45.394;10.978;2024-01-30T05:23:41;53.67;;;25.98;;
23384;SDS011;11865;45.394;10.978;2024-01-30T05:26:09;45.60;;;24.65;;
23384;SDS011;11865;45.394;10.978;2024-01-30T05:28:37;52.65;;;27.92;;
23384;SDS011;11865;45.394;10.978;2024-01-30T05:31:04;70.80;;;27.23;;
23384;SDS011;11865;45.394;10.978;2024-01-30T05:33:32;67.15;;;24.98;;
23384;SDS011;11865;45.394;10.978;2024-01-30T05:36:00;102.22;;;26.90;;
23384;SDS011;11865;45.394;10.978;2024-01-30T05:38:28;77.18;;;26.20;;
23384;SDS011;11865;45.394;10.978;2024-01-30T05:40:57;61.13;;;25.05;;
23384;SDS011;11865;45.394;10.978;2024-01-30T05:43:25;74.10;;;26.65;;
23384;SDS011;11865;45.394;10.978;2024-01-30T05:45:53;53.17;;;25.08;;
23384;SDS011;11865;45.394;10.978;2024-01-30T05:48:21;60.30;;;25.95;;
23384;SDS011;11865;45.394;10.978;2024-01-30T05:50:49;66.55;;;25.48;;
23384;SDS011;11865;45.394;10.978;2024-01-30T05:53:16;49.00;;;25.50;;
23384;SDS011;11865;45.394;10.978;2024-01-30T05:55:44;48.10;;;26.70;;
23384;SDS011;11865;45.394;10.978;2024-01-30T05:58:11;48.70;;;25.67;;
23384;SDS011;11865;45.394;10.978;2024-01-30T06:00:39;68.43;;;27.60;;
23384;SDS011;11865;45.394;10.978;2024-01-30T06:03:07;53.70;;;28.33;;
23384;SDS011;11865;45.394;10.978;2024-01-30T06:05:35;53.47;;;25.42;;
23384;SDS011;11865;45.394;10.978;2024-01-30T06:08:02;59.78;;;26.80;;
23384;SDS011;11865;45.394;10.978;2024-01-30T06:10:30;79.97;;;26.85;;
23384;SDS011;11865;45.394;10.978;2024-01-30T06:12:58;59.10;;;24.63;;
23384;SDS011;11865;45.394;10.978;2024-01-30T06:15:26;57.53;;;25.70;;
23384;SDS011;11865;45.394;10.978;2024-01-30T06:17:53;70.78;;;25.85;;
23384;SDS011;11865;45.394;10.978;2024-01-30T06:20:21;68.32;;;25.48;;
23384;SDS011;11865;45.394;10.978;2024-01-30T06:22:49;60.50;;;25.40;;
23384;SDS011;11865;45.394;10.978;2024-01-30T06:25:16;45.80;;;25.30;;
23384;SDS011;11865;45.394;10.978;2024-01-30T06:27:44;63.38;;;25.02;;
23384;SDS011;11865;45.394;10.978;2024-01-30T06:30:12;65.65;;;25.20;;
23384;SDS011;11865;45.394;10.978;2024-01-30T06:32:39;84.00;;;25.60;;
23384;SDS011;11865;45.394;10.978;2024-01-30T06:35:07;53.72;;;25.58;;
23384;SDS011;11865;45.394;10.978;2024-01-30T06:37:37;71.95;;;29.90;;
23384;SDS011;11865;45.394;10.978;2024-01-30T06:40:05;82.90;;;28.08;;
23384;SDS011;11865;45.394;10.978;2024-01-30T06:42:33;66.55;;;26.40;;
23384;SDS011;11865;45.394;10.978;2024-01-30T06:45:01;88.88;;;29.55;;
23384;SDS011;11865;45.394;10.978;2024-01-30T06:47:29;82.00;;;29.63;;
23384;SDS011;11865;45.394;10.978;2024-01-30T06:49:58;60.70;;;29.10;;
23384;SDS011;11865;45.394;10.978;2024-01-30T06:52:26;86.35;;;29.58;;
23384;SDS011;11865;45.394;10.978;2024-01-30T06:54:53;79.50;;;27.38;;
23384;SDS011;11865;45.394;10.978;2024-01-30T06:57:21;74.90;;;27.75;;
23384;SDS011;11865;45.394;10.978;2024-01-30T06:59:49;74.57;;;26.75;;
23384;SDS011;11865;45.394;10.978;2024-01-30T07:02:17;89.78;;;27.73;;
23384;SDS011;11865;45.394;10.978;2024-01-30T07:04:44;75.32;;;28.10;;
23384;SDS011;11865;45.394;10.978;2024-01-30T07:07:13;76.80;;;27.30;;
23384;SDS011;11865;45.394;10.978;2024-01-30T07:09:42;96.90;;;27.15;;
23384;SDS011;11865;45.394;10.978;2024-01-30T07:12:10;79.43;;;28.30;;
23384;SDS011;11865;45.394;10.978;2024-01-30T07:14:38;78.22;;;27.98;;
23384;SDS011;11865;45.394;10.978;2024-01-30T07:17:05;82.10;;;27.08;;
23384;SDS011;11865;45.394;10.978;2024-01-30T07:19:34;66.82;;;28.33;;
23384;SDS011;11865;45.394;10.978;2024-01-30T07:22:01;78.28;;;27.98;;
23384;SDS011;11865;45.394;10.978;2024-01-30T07:24:29;73.40;;;27.40;;
23384;SDS011;11865;45.394;10.978;2024-01-30T07:26:57;76.82;;;28.15;;
23384;SDS011;11865;45.394;10.978;2024-01-30T07:29:24;65.30;;;27.83;;
23384;SDS011;11865;45.394;10.978;2024-01-30T07:31:52;75.10;;;27.50;;
23384;SDS011;11865;45.394;10.978;2024-01-30T07:34:20;79.03;;;26.95;;
23384;SDS011;11865;45.394;10.978;2024-01-30T07:36:48;66.35;;;26.05;;
23384;SDS011;11865;45.394;10.978;2024-01-30T07:39:16;55.38;;;26.58;;
23384;SDS011;11865;45.394;10.978;2024-01-30T07:41:43;82.47;;;28.67;;
23384;SDS011;11865;45.394;10.978;2024-01-30T07:44:11;73.05;;;28.58;;
23384;SDS011;11865;45.394;10.978;2024-01-30T07:46:38;67.95;;;27.20;;
23384;SDS011;11865;45.394;10.978;2024-01-30T07:49:06;67.38;;;29.27;;
23384;SDS011;11865;45.394;10.978;2024-01-30T07:51:34;62.20;;;29.80;;
23384;SDS011;11865;45.394;10.978;2024-01-30T07:54:01;78.97;;;30.65;;
23384;SDS011;11865;45.394;10.978;2024-01-30T07:56:29;69.88;;;30.20;;
23384;SDS011;11865;45.394;10.978;2024-01-30T07:59:00;73.33;;;31.37;;
23384;SDS011;11865;45.394;10.978;2024-01-30T08:01:27;69.20;;;31.77;;
23384;SDS011;11865;45.394;10.978;2024-01-30T08:03:56;66.13;;;30.33;;
23384;SDS011;11865;45.394;10.978;2024-01-30T08:06:24;82.68;;;30.17;;
23384;SDS011;11865;45.394;10.978;2024-01-30T08:08:53;69.78;;;30.15;;
23384;SDS011;11865;45.394;10.978;2024-01-30T08:11:50;74.70;;;29.00;;
23384;SDS011;11865;45.394;10.978;2024-01-30T08:14:18;66.72;;;25.50;;
23384;SDS011;11865;45.394;10.978;2024-01-30T08:16:47;58.75;;;25.98;;
23384;SDS011;11865;45.394;10.978;2024-01-30T08:19:15;64.32;;;25.35;;
23384;SDS011;11865;45.394;10.978;2024-01-30T08:21:43;49.42;;;22.98;;
23384;SDS011;11865;45.394;10.978;2024-01-30T08:24:11;61.60;;;24.90;;
23384;SDS011;11865;45.394;10.978;2024-01-30T08:26:39;91.57;;;26.13;;
23384;SDS011;11865;45.394;10.978;2024-01-30T08:29:07;83.53;;;24.95;;
23384;SDS011;11865;45.394;10.978;2024-01-30T08:31:35;91.80;;;29.38;;
23384;SDS011;11865;45.394;10.978;2024-01-30T08:34:03;78.90;;;28.83;;
23384;SDS011;11865;45.394;10.978;2024-01-30T08:36:31;94.43;;;30.63;;
23384;SDS011;11865;45.394;10.978;2024-01-30T08:38:59;74.15;;;27.85;;
23384;SDS011;11865;45.394;10.978;2024-01-30T08:41:32;63.00;;;28.70;;
23384;SDS011;11865;45.394;10.978;2024-01-30T08:44:00;70.63;;;27.83;;
23384;SDS011;11865;45.394;10.978;2024-01-30T08:46:27;62.63;;;27.55;;
23384;SDS011;11865;45.394;10.978;2024-01-30T08:48:55;61.03;;;27.75;;
23384;SDS011;11865;45.394;10.978;2024-01-30T08:51:23;80.45;;;27.85;;
23384;SDS011;11865;45.394;10.978;2024-01-30T08:53:50;63.33;;;26.88;;
23384;SDS011;11865;45.394;10.978;2024-01-30T08:56:19;90.32;;;26.65;;
23384;SDS011;11865;45.394;10.978;2024-01-30T08:58:47;66.93;;;27.10;;
23384;SDS011;11865;45.394;10.978;2024-01-30T09:01:14;68.63;;;26.52;;
23384;SDS011;11865;45.394;10.978;2024-01-30T09:03:42;52.95;;;26.83;;
23384;SDS011;11865;45.394;10.978;2024-01-30T09:06:12;64.38;;;27.00;;
23384;SDS011;11865;45.394;10.978;2024-01-30T09:08:40;77.07;;;26.50;;
23384;SDS011;11865;45.394;10.978;2024-01-30T09:11:08;53.58;;;25.30;;
23384;SDS011;11865;45.394;10.978;2024-01-30T09:13:38;64.43;;;25.35;;
23384;SDS011;11865;45.394;10.978;2024-01-30T09:16:09;50.97;;;19.55;;
23384;SDS011;11865;45.394;10.978;2024-01-30T09:18:37;66.10;;;27.42;;
23384;SDS011;11865;45.394;10.978;2024-01-30T09:21:04;55.35;;;25.48;;
23384;SDS011;11865;45.394;10.978;2024-01-30T09:23:32;73.38;;;26.15;;
23384;SDS011;11865;45.394;10.978;2024-01-30T09:26:00;59.17;;;26.88;;
23384;SDS011;11865;45.394;10.978;2024-01-30T09:28:28;84.15;;;29.45;;
23384;SDS011;11865;45.394;10.978;2024-01-30T09:30:56;70.72;;;28.10;;
23384;SDS011;11865;45.394;10.978;2024-01-30T09:33:24;49.22;;;26.38;;
23384;SDS011;11865;45.394;10.978;2024-01-30T09:35:52;63.08;;;27.85;;
23384;SDS011;11865;45.394;10.978;2024-01-30T09:38:20;63.30;;;26.60;;
23384;SDS011;11865;45.394;10.978;2024-01-30T09:40:50;64.70;;;27.13;;
23384;SDS011;11865;45.394;10.978;2024-01-30T09:43:22;72.20;;;28.88;;
23384;SDS011;11865;45.394;10.978;2024-01-30T09:45:53;66.47;;;28.83;;
23384;SDS011;11865;45.394;10.978;2024-01-30T09:48:22;73.88;;;29.58;;
23384;SDS011;11865;45.394;10.978;2024-01-30T09:50:50;65.13;;;28.52;;
23384;SDS011;11865;45.394;10.978;2024-01-30T09:53:19;90.05;;;29.60;;
23384;SDS011;11865;45.394;10.978;2024-01-30T09:55:49;70.15;;;30.23;;
23384;SDS011;11865;45.394;10.978;2024-01-30T09:58:17;57.85;;;27.45;;
23384;SDS011;11865;45.394;10.978;2024-01-30T10:00:45;73.03;;;28.20;;
23384;SDS011;11865;45.394;10.978;2024-01-30T10:03:13;54.95;;;29.02;;
23384;SDS011;11865;45.394;10.978;2024-01-30T10:05:42;67.47;;;28.30;;
23384;SDS011;11865;45.394;10.978;2024-01-30T10:08:19;80.72;;;29.77;;
23384;SDS011;11865;45.394;10.978;2024-01-30T10:10:47;66.97;;;29.88;;
23384;SDS011;11865;45.394;10.978;2024-01-30T10:13:16;80.13;;;28.98;;
23384;SDS011;11865;45.394;10.978;2024-01-30T10:15:44;55.08;;;28.40;;
23384;SDS011;11865;45.394;10.978;2024-01-30T10:18:12;56.45;;;27.92;;
23384;SDS011;11865;45.394;10.978;2024-01-30T10:20:40;81.18;;;30.02;;
23384;SDS011;11865;45.394;10.978;2024-01-30T10:23:08;83.32;;;28.90;;
23384;SDS011;11865;45.394;10.978;2024-01-30T10:25:36;70.43;;;28.33;;
23384;SDS011;11865;45.394;10.978;2024-01-30T10:28:05;58.53;;;29.30;;
23384;SDS011;11865;45.394;10.978;2024-01-30T10:30:33;63.05;;;30.63;;
23384;SDS011;11865;45.394;10.978;2024-01-30T10:33:01;73.80;;;29.73;;
23384;SDS011;11865;45.394;10.978;2024-01-30T10:35:29;58.35;;;28.80;;
23384;SDS011;11865;45.394;10.978;2024-01-30T10:37:57;69.18;;;31.55;;
23384;SDS011;11865;45.394;10.978;2024-01-30T10:40:28;60.13;;;32.20;;
23384;SDS011;11865;45.394;10.978;2024-01-30T10:42:57;55.33;;;29.50;;
23384;SDS011;11865;45.394;10.978;2024-01-30T10:45:31;62.45;;;32.40;;
23384;SDS011;11865;45.394;10.978;2024-01-30T10:48:00;71.20;;;31.58;;
23384;SDS011;11865;45.394;10.978;2024-01-30T10:50:31;71.57;;;32.77;;
23384;SDS011;11865;45.394;10.978;2024-01-30T10:53:08;60.65;;;31.27;;
23384;SDS011;11865;45.394;10.978;2024-01-30T10:55:37;61.35;;;31.02;;
23384;SDS011;11865;45.394;10.978;2024-01-30T10:58:06;57.40;;;30.95;;
23384;SDS011;11865;45.394;10.978;2024-01-30T11:00:35;62.33;;;32.70;;
23384;SDS011;11865;45.394;10.978;2024-01-30T11:03:03;53.97;;;30.00;;
23384;SDS011;11865;45.394;10.978;2024-01-30T11:05:31;54.03;;;29.85;;
23384;SDS011;11865;45.394;10.978;2024-01-30T11:08:10;53.53;;;29.60;;
23384;SDS011;11865;45.394;10.978;2024-01-30T11:10:48;57.15;;;30.83;;
23384;SDS011;11865;45.394;10.978;2024-01-30T11:13:16;53.53;;;31.25;;
23384;SDS011;11865;45.394;10.978;2024-01-30T11:15:47;54.55;;;31.67;;
23384;SDS011;11865;45.394;10.978;2024-01-30T11:18:22;64.35;;;33.80;;
23384;SDS011;11865;45.394;10.978;2024-01-30T11:20:51;66.72;;;36.95;;
23384;SDS011;11865;45.394;10.978;2024-01-30T11:23:21;71.45;;;39.33;;
23384;SDS011;11865;45.394;10.978;2024-01-30T11:25:51;80.93;;;40.10;;
23384;SDS011;11865;45.394;10.978;2024-01-30T11:28:23;83.35;;;43.22;;
23384;SDS011;11865;45.394;10.978;2024-01-30T11:30:51;83.47;;;44.88;;
23384;SDS011;11865;45.394;10.978;2024-01-30T11:33:30;85.38;;;44.88;;
23384;SDS011;11865;45.394;10.978;2024-01-30T11:36:00;76.40;;;41.42;;
23384;SDS011;11865;45.394;10.978;2024-01-30T11:38:34;67.88;;;39.17;;
23384;SDS011;11865;45.394;10.978;2024-01-30T11:41:01;66.10;;;37.63;;
23384;SDS011;11865;45.394;10.978;2024-01-30T11:43:30;64.53;;;36.03;;
23384;SDS011;11865;45.394;10.978;2024-01-30T11:45:59;66.53;;;34.78;;
23384;SDS011;11865;45.394;10.978;2024-01-30T11:48:27;69.00;;;36.72;;
23384;SDS011;11865;45.394;10.978;2024-01-30T11:50:55;65.85;;;35.85;;
23384;SDS011;11865;45.394;10.978;2024-01-30T11:53:23;57.28;;;34.20;;
23384;SDS011;11865;45.394;10.978;2024-01-30T11:55:50;58.42;;;33.53;;
23384;SDS011;11865;45.394;10.978;2024-01-30T11:58:18;54.25;;;32.70;;
23384;SDS011;11865;45.394;10.978;2024-01-30T12:00:53;55.33;;;31.95;;
23384;SDS011;11865;45.394;10.978;2024-01-30T12:03:23;53.47;;;31.80;;
23384;SDS011;11865;45.394;10.978;2024-01-30T12:05:55;56.63;;;31.50;;
23384;SDS011;11865;45.394;10.978;2024-01-30T12:08:25;57.08;;;32.60;;
23384;SDS011;11865;45.394;10.978;2024-01-30T12:10:55;54.70;;;32.55;;
23384;SDS011;11865;45.394;10.978;2024-01-30T12:13:25;53.55;;;31.45;;
23384;SDS011;11865;45.394;10.978;2024-01-30T12:15:58;53.45;;;30.75;;
23384;SDS011;11865;45.394;10.978;2024-01-30T12:18:26;56.15;;;30.50;;
23384;SDS011;11865;45.394;10.978;2024-01-30T12:20:58;48.30;;;28.55;;
23384;SDS011;11865;45.394;10.978;2024-01-30T12:23:27;55.97;;;29.00;;
23384;SDS011;11865;45.394;10.978;2024-01-30T12:25:55;50.42;;;29.05;;
23384;SDS011;11865;45.394;10.978;2024-01-30T12:28:25;51.58;;;29.80;;
23384;SDS011;11865;45.394;10.978;2024-01-30T12:30:56;51.90;;;30.33;;
23384;SDS011;11865;45.394;10.978;2024-01-30T12:33:30;53.17;;;30.60;;
23384;SDS011;11865;45.394;10.978;2024-01-30T12:36:05;55.58;;;31.95;;
23384;SDS011;11865;45.394;10.978;2024-01-30T12:38:34;55.03;;;31.50;;
23384;SDS011;11865;45.394;10.978;2024-01-30T12:41:01;51.55;;;30.20;;
23384;SDS011;11865;45.394;10.978;2024-01-30T12:43:29;52.63;;;29.45;;
23384;SDS011;11865;45.394;10.978;2024-01-30T12:46:05;49.45;;;29.23;;
23384;SDS011;11865;45.394;10.978;2024-01-30T12:48:33;56.08;;;31.70;;
23384;SDS011;11865;45.394;10.978;2024-01-30T12:51:01;55.90;;;33.08;;
23384;SDS011;11865;45.394;10.978;2024-01-30T12:53:28;56.75;;;34.83;;
23384;SDS011;11865;45.394;10.978;2024-01-30T12:55:56;56.75;;;33.83;;
23384;SDS011;11865;45.394;10.978;2024-01-30T12:58:24;63.83;;;35.05;;
23384;SDS011;11865;45.394;10.978;2024-01-30T13:00:52;54.92;;;32.00;;
23384;SDS011;11865;45.394;10.978;2024-01-30T13:03:21;53.75;;;32.08;;
23384;SDS011;11865;45.394;10.978;2024-01-30T13:05:49;56.80;;;32.08;;
23384;SDS011;11865;45.394;10.978;2024-01-30T13:08:17;58.67;;;32.28;;
23384;SDS011;11865;45.394;10.978;2024-01-30T13:10:44;54.22;;;30.88;;
23384;SDS011;11865;45.394;10.978;2024-01-30T13:13:15;67.07;;;35.17;;
23384;SDS011;11865;45.394;10.978;2024-01-30T13:15:47;71.27;;;36.53;;
23384;SDS011;11865;45.394;10.978;2024-01-30T13:18:15;68.93;;;36.92;;
23384;SDS011;11865;45.394;10.978;2024-01-30T13:20:43;67.20;;;36.90;;
23384;SDS011;11865;45.394;10.978;2024-01-30T13:23:11;65.63;;;36.13;;
23384;SDS011;11865;45.394;10.978;2024-01-30T13:25:38;69.80;;;35.40;;
23384;SDS011;11865;45.394;10.978;2024-01-30T13:28:06;62.17;;;34.35;;
23384;SDS011;11865;45.394;10.978;2024-01-30T13:30:33;73.13;;;37.53;;
23384;SDS011;11865;45.394;10.978;2024-01-30T13:33:01;67.43;;;34.17;;
23384;SDS011;11865;45.394;10.978;2024-01-30T13:35:30;60.25;;;32.78;;
23384;SDS011;11865;45.394;10.978;2024-01-30T13:37:58;59.33;;;33.38;;
23384;SDS011;11865;45.394;10.978;2024-01-30T13:40:26;55.22;;;32.30;;
23384;SDS011;11865;45.394;10.978;2024-01-30T13:42:54;55.38;;;30.45;;
23384;SDS011;11865;45.394;10.978;2024-01-30T13:45:21;56.60;;;33.03;;
23384;SDS011;11865;45.394;10.978;2024-01-30T13:47:50;53.80;;;31.40;;
23384;SDS011;11865;45.394;10.978;2024-01-30T13:50:18;52.42;;;31.83;;
23384;SDS011;11865;45.394;10.978;2024-01-30T13:52:45;50.60;;;31.08;;
23384;SDS011;11865;45.394;10.978;2024-01-30T13:55:13;51.30;;;29.55;;
23384;SDS011;11865;45.394;10.978;2024-01-30T13:57:41;53.90;;;31.25;;
23384;SDS011;11865;45.394;10.978;2024-01-30T14:00:09;52.90;;;31.60;;
23384;SDS011;11865;45.394;10.978;2024-01-30T14:02:41;59.63;;;32.85;;
23384;SDS011;11865;45.394;10.978;2024-01-30T14:05:09;62.47;;;33.67;;
23384;SDS011;11865;45.394;10.978;2024-01-30T14:07:37;61.15;;;33.47;;
23384;SDS011;11865;45.394;10.978;2024-01-30T14:10:07;60.72;;;35.55;;
23384;SDS011;11865;45.394;10.978;2024-01-30T14:12:41;58.55;;;32.80;;
23384;SDS011;11865;45.394;10.978;2024-01-30T14:15:10;59.40;;;32.28;;